Nearby METAR Reports

 

KEQY - Monroe, North Carolina, USA
Distance from station: S 11mi, 18km
Updated: Tue, 07/26/2016 8:53pm EDT
Mostly cloudy
Mostly cloudy
 Wind from calm
Wind: Calm
Temperature: 88°F , 31°C
Heat Index: 95°F , 35°C
Dew Point: 72°F , 22°C
Humidity: 59%
Barometer: 29.97 inHg , 1014.9 hPa
Clouds: Mostly cloudy
Visibility: 10 miles , 16 km
Cloud details: Mostly cloudy 7500 ft
2016/07/27 00:53 KEQY 270053Z AUTO 00000KT 10SM BKN075 31/22 A2997 RMK AO2 SLP142 T03060217 TSNO
KJQF - Concord Reg Arpt, North Carolina, USA
Distance from station: NNW 16mi, 25km
Updated: Tue, 07/26/2016 8:51pm EDT
Clear
Clear
 Wind from calm
Wind: Calm
Temperature: 81°F , 27°C
Heat Index: 88°F , 31°C
Dew Point: 77°F , 25°C
Humidity: 89%
Barometer: 30.01 inHg , 1016.3 hPa
Clouds: Clear
Visibility: 10 miles , 16 km
2016/07/27 00:51 KJQF 270051Z 00000KT 10SM CLR 27/25 A3001
 
KCLT - Charlotte, North Carolina, USA
Distance from station: W 20mi, 33km
Updated: Tue, 07/26/2016 8:52pm EDT
Mostly cloudy
Mostly cloudy
 Wind from NNW
Wind: NNW 6 mph , 9 km/h
Temperature: 86°F , 30°C
Heat Index: 92°F , 33°C
Dew Point: 72°F , 22°C
Humidity: 62%
Barometer: 29.98 inHg , 1015.2 hPa
Clouds: Mostly cloudy
Visibility: 10 miles , 16 km
Cloud details: Few Clouds 6000 ft
Few Clouds 8000 ft
Partly cloudy 15000 ft
Mostly cloudy 25000 ft
2016/07/27 00:52 KCLT 270052Z 33005KT 10SM FEW060 FEW080 SCT150 BKN250 30/22 A2998 RMK AO2 SLP142 CB DSNT E MOV E T03000217
KUZA - Rock Hill, South Carolina, USA
Distance from station: WSW 29mi, 47km
Updated: Tue, 07/26/2016 8:54pm EDT
Mostly cloudy
Mostly cloudy
 Wind from NW
Wind: NW 5 mph , 7 km/h
Temperature: 88°F , 31°C
Heat Index: 95°F , 35°C
Dew Point: 72°F , 22°C
Humidity: 59%
Barometer: 29.98 inHg , 1015.2 hPa
Clouds: Mostly cloudy
Visibility: 10 miles , 16 km
Cloud details: Mostly cloudy 7000 ft
2016/07/27 00:54 KUZA 270054Z AUTO 31004KT 10SM BKN070 31/22 A2998 RMK AO2 LTG DSNT NE SLP137 T03110217
 
KVUJ - Albemarle Stanly, North Carolina, USA
Distance from station: NE 30mi, 48km
Updated: Tue, 07/26/2016 9:15pm EDT
Partly cloudy
Partly cloudy
 Wind from calm
Wind: Calm
Temperature: 82°F , 28°C
Heat Index: 89°F , 32°C
Dew Point: 75°F , 24°C
Humidity: 79%
Barometer: 30.02 inHg , 1016.6 hPa
Clouds: Partly cloudy
Visibility: 10 miles , 16 km
Cloud details: Partly cloudy 6500 ft
Partly cloudy 7500 ft
2016/07/27 01:15 KVUJ 270115Z AUTO 00000KT 10SM SCT065 SCT075 28/24 A3002 RMK AO2 LTG DSNT E SW AND NW T02750241
KAFP - Wadesboro/Anson, North Carolina, USA
Distance from station: ESE 31mi, 50km
Updated: Tue, 07/26/2016 9:20pm EDT
Partly cloudy
Partly cloudy
 Wind from calm
Wind: Calm
Temperature: 88°F , 31°C
Heat Index: 96°F , 36°C
Dew Point: 73°F , 23°C
Humidity: 62%
Barometer: 29.96 inHg , 1014.6 hPa
Clouds: Partly cloudy
Visibility: 10 miles , 16 km
Cloud details: Partly cloudy 7000 ft
Partly cloudy 8500 ft
2016/07/27 01:20 KAFP 270120Z AUTO 00000KT 10SM SCT070 SCT085 31/23 A2996 RMK AO2 T03050225
 
KAKH - Gastonia, North Carolina, USA
Distance from station: W 31mi, 51km
Updated: Tue, 07/26/2016 8:54pm EDT
Partly cloudy
Partly cloudy
 Wind from calm
Wind: Calm
Temperature: 84°F , 29°C
Heat Index: 89°F , 32°C
Dew Point: 72°F , 22°C
Humidity: 66%
Barometer: 29.98 inHg , 1015.2 hPa
Clouds: Partly cloudy
Visibility: 10 miles , 16 km
Cloud details: Partly cloudy 6500 ft
2016/07/27 00:54 KAKH 270054Z AUTO 00000KT 10SM SCT065 29/22 A2998 RMK AO2 SLP143 T02940217 TSNO
KRUQ - Salisbury Rowan, North Carolina, USA
Distance from station: N 33mi, 53km
Updated: Tue, 07/26/2016 9:20pm EDT
Clear
Clear
 Wind from calm
Wind: Calm
Temperature: 82°F , 28°C
Heat Index: 91°F , 33°C
Dew Point: 79°F , 26°C
Humidity: 89%
Barometer: 29.97 inHg , 1014.9 hPa
Clouds: Clear
Visibility: 10 miles , 16 km
2016/07/27 01:20 KRUQ 270120Z AUTO 00000KT 10SM CLR 28/26 A2997 RMK AO2 T02750261
 
KLKR - Lancaster, South Carolina, USA
Distance from station: SSW 35mi, 57km
Updated: Tue, 07/26/2016 9:35pm EDT
Clear
Clear
 Wind from SSE
Wind: SSE 3 mph , 6 km/h
Temperature: 88°F , 31°C
Heat Index: 93°F , 34°C
Dew Point: 70°F , 21°C
Humidity: 55%
Barometer: 29.97 inHg , 1014.9 hPa
Clouds: Clear
Visibility: 10 miles , 16 km
2016/07/27 01:35 KLKR 270135Z AUTO 16003KT 10SM CLR 31/21 A2997 RMK AO2 PWINO
KIPJ - Lincolnton, North Carolina, USA
Distance from station: WNW 39mi, 62km
Updated: Tue, 07/26/2016 9:20pm EDT
Partly cloudy
Partly cloudy
 Wind from WSW
Wind: WSW 5 mph , 7 km/h
Temperature: 81°F , 27°C
Heat Index: 85°F , 29°C
Dew Point: 72°F , 22°C
Humidity: 74%
Barometer: 29.99 inHg , 1015.6 hPa
Clouds: Partly cloudy
Visibility: 10 miles , 16 km
Cloud details: Partly cloudy 12000 ft
2016/07/27 01:20 KIPJ 270120Z AUTO 24004KT 10SM SCT120 27/22 A2999 RMK AO2 T02670215
 
KDCM - Chester Catawba, South Carolina, USA
Distance from station: SW 44mi, 71km
Updated: Tue, 07/26/2016 9:35pm EDT
Partly cloudy
Partly cloudy
 Wind from WNW
Wind: WNW 3 mph , 6 km/h
Temperature: 81°F , 27°C
Heat Index: 85°F , 29°C
Dew Point: 70°F , 21°C
Humidity: 70%
Barometer: 29.99 inHg , 1015.6 hPa
Clouds: Partly cloudy
Visibility: 10 miles , 16 km
Cloud details: Partly cloudy 7000 ft
2016/07/27 01:35 KDCM 270135Z AUTO 29003KT 10SM SCT070 27/21 A2999 RMK AO2
KSVH - Statesville, North Carolina, USA
Distance from station: NNW 44mi, 71km
Updated: Tue, 07/26/2016 9:20pm EDT
Clear
Clear
 Wind from calm
Wind: Calm
Temperature: 81°F , 27°C
Heat Index: 87°F , 31°C
Dew Point: 75°F , 24°C
Humidity: 84%
Barometer: 29.99 inHg , 1015.6 hPa
Clouds: Clear
Visibility: 10 miles , 16 km
2016/07/27 01:20 KSVH 270120Z AUTO 00000KT 10SM CLR 27/24 A2999 RMK AO2 T02730243
 
KEXX - Davidson Cty Ap, North Carolina, USA
Distance from station: NNE 45mi, 72km
Updated: Tue, 07/26/2016 9:15pm EDT
Clear
Clear
 Wind from calm
Wind: Calm
Temperature: 81°F , 27°C
Heat Index: 87°F , 31°C
Dew Point: 75°F , 24°C
Humidity: 84%
Barometer: 29.97 inHg , 1014.9 hPa
Clouds: Clear
Visibility: 10 miles , 16 km
2016/07/27 01:15 KEXX 270115Z AUTO 00000KT 10SM CLR 27/24 A2997 RMK AO2 T02680241
KCQW - Cheraw, South Carolina, USA
Distance from station: SE 49mi, 78km
Updated: Tue, 07/26/2016 9:35pm EDT
Clear
Clear
 Wind from S
Wind: S 3 mph , 6 km/h
Temperature: 84°F , 29°C
Heat Index: 90°F , 32°C
Dew Point: 73°F , 23°C
Humidity: 70%
Barometer: 29.96 inHg , 1014.6 hPa
Clouds: Clear
Visibility: 10 miles , 16 km
2016/07/27 01:35 KCQW 270135Z AUTO 19003KT 10SM CLR 29/23 A2996 RMK AO2